createdAt,value
2024-02-29T00:00:22.136Z,8.53
2024-02-29T00:03:10.343Z,8.52
2024-02-29T00:05:38.887Z,8.52
2024-02-29T00:08:07.426Z,8.53
2024-02-29T00:10:35.491Z,8.54
2024-02-29T00:13:03.525Z,8.56
2024-02-29T00:15:31.723Z,8.57
2024-02-29T00:17:59.897Z,8.59
2024-02-29T00:20:28.092Z,8.60
2024-02-29T00:22:56.150Z,8.60
2024-02-29T00:25:24.343Z,8.60
2024-02-29T00:27:52.510Z,8.60
2024-02-29T00:30:21.286Z,8.59
2024-02-29T00:32:49.420Z,8.58
2024-02-29T00:35:17.546Z,8.55
2024-02-29T00:37:46.102Z,8.52
2024-02-29T00:40:14.463Z,8.49
2024-02-29T00:42:42.522Z,8.45
2024-02-29T00:45:10.608Z,8.39
2024-02-29T00:47:39.290Z,8.35
2024-02-29T00:50:08.431Z,8.31
2024-02-29T00:52:36.575Z,8.27
2024-02-29T00:55:05.521Z,8.23
2024-02-29T00:57:33.869Z,8.19
2024-02-29T01:00:02.212Z,8.16
2024-02-29T01:02:55.417Z,8.12
2024-02-29T01:05:23.446Z,8.08
2024-02-29T01:07:51.615Z,8.04
2024-02-29T01:10:19.883Z,8.01
2024-02-29T01:12:48.298Z,7.98
2024-02-29T01:15:16.710Z,7.95
2024-02-29T01:17:45.148Z,7.92
2024-02-29T01:20:13.387Z,7.89
2024-02-29T01:22:41.620Z,7.87
2024-02-29T01:25:11.386Z,7.83
2024-02-29T01:27:39.782Z,7.79
2024-02-29T01:30:08.381Z,7.76
2024-02-29T01:32:37.870Z,7.74
2024-02-29T01:35:06.934Z,7.73
2024-02-29T01:37:35.025Z,7.72
2024-02-29T01:40:03.451Z,7.73
2024-02-29T01:42:31.592Z,7.74
2024-02-29T01:44:59.635Z,7.74
2024-02-29T01:47:28.126Z,7.73
2024-02-29T01:50:00.194Z,7.72
2024-02-29T01:52:30.734Z,7.71
2024-02-29T01:55:04.165Z,7.68
2024-02-29T01:57:35.409Z,7.66
2024-02-29T02:00:05.810Z,7.62
2024-02-29T02:02:35.506Z,7.58
2024-02-29T02:05:03.864Z,7.54
2024-02-29T02:07:33.444Z,7.49
2024-02-29T02:10:01.774Z,7.44
2024-02-29T02:12:29.951Z,7.39
2024-02-29T02:15:03.670Z,7.34
2024-02-29T02:17:33.584Z,7.28
2024-02-29T02:20:02.673Z,7.23
2024-02-29T02:22:31.478Z,7.19
2024-02-29T02:24:59.525Z,7.16
2024-02-29T02:27:27.739Z,7.13
2024-02-29T02:29:57.212Z,7.11
2024-02-29T02:32:25.311Z,7.11
2024-02-29T02:34:53.485Z,7.11
2024-02-29T02:37:21.636Z,7.11
2024-02-29T02:39:49.744Z,7.13
2024-02-29T02:42:18.002Z,7.14
2024-02-29T02:44:45.997Z,7.13
2024-02-29T02:47:14.015Z,7.11
2024-02-29T02:49:43.059Z,7.13
2024-02-29T02:52:11.234Z,7.13
2024-02-29T02:54:40.713Z,7.14
2024-02-29T02:57:09.478Z,7.13
2024-02-29T02:59:37.550Z,7.12
2024-02-29T03:02:05.598Z,7.13
2024-02-29T03:04:33.900Z,7.12
2024-02-29T03:07:01.983Z,7.11
2024-02-29T03:09:31.908Z,7.11
2024-02-29T03:12:00.213Z,7.12
2024-02-29T03:14:28.349Z,7.14
2024-02-29T03:16:56.926Z,7.13
2024-02-29T03:19:25.042Z,7.14
2024-02-29T03:21:53.258Z,7.16
2024-02-29T03:24:21.407Z,7.16
2024-02-29T03:26:49.560Z,7.11
2024-02-29T03:29:17.706Z,7.05
2024-02-29T03:31:46.720Z,7.02
2024-02-29T03:34:16.431Z,6.97
2024-02-29T03:36:44.729Z,6.92
2024-02-29T03:39:12.838Z,6.85
2024-02-29T03:41:41.055Z,6.79
2024-02-29T03:44:09.133Z,6.73
2024-02-29T03:46:37.199Z,6.69
2024-02-29T03:49:05.360Z,6.66
2024-02-29T03:51:34.331Z,6.62
2024-02-29T03:54:03.543Z,6.59
2024-02-29T03:56:32.448Z,6.55
2024-02-29T03:59:00.721Z,6.50
2024-02-29T04:01:28.802Z,6.45
2024-02-29T04:03:57.065Z,6.39
2024-02-29T04:06:25.208Z,6.34
2024-02-29T04:08:53.424Z,6.29
2024-02-29T04:11:21.542Z,6.25
2024-02-29T04:13:49.627Z,6.20
2024-02-29T04:16:18.451Z,6.15
2024-02-29T04:18:46.710Z,6.12
2024-02-29T04:21:14.757Z,6.09
2024-02-29T04:23:42.814Z,6.06
2024-02-29T04:26:10.830Z,6.04
2024-02-29T04:28:39.072Z,6.01
2024-02-29T04:31:07.235Z,5.98
2024-02-29T04:33:35.340Z,5.95
2024-02-29T04:36:03.651Z,5.92
2024-02-29T04:38:31.777Z,5.89
2024-02-29T04:40:59.875Z,5.84
2024-02-29T04:43:28.360Z,5.81
2024-02-29T04:45:56.758Z,5.77
2024-02-29T04:48:27.347Z,5.73
2024-02-29T04:50:55.712Z,5.68
2024-02-29T04:53:23.826Z,5.64
2024-02-29T04:55:51.984Z,5.60
2024-02-29T04:58:20.286Z,5.55
2024-02-29T05:00:49.748Z,5.51
2024-02-29T05:03:18.231Z,5.48
2024-02-29T05:05:46.506Z,5.45
2024-02-29T05:08:14.534Z,5.41
2024-02-29T05:10:42.882Z,5.39
2024-02-29T05:13:11.435Z,5.37
2024-02-29T05:15:40.439Z,5.36
2024-02-29T05:18:08.834Z,5.34
2024-02-29T05:20:37.153Z,5.33
2024-02-29T05:23:05.457Z,5.31
2024-02-29T05:25:33.649Z,5.30
2024-02-29T05:28:03.018Z,5.30
2024-02-29T05:30:31.056Z,5.30
2024-02-29T05:32:59.227Z,5.31
2024-02-29T05:35:27.476Z,5.33
2024-02-29T05:37:58.481Z,5.34
2024-02-29T05:40:30.791Z,5.38
2024-02-29T05:42:59.000Z,5.44
2024-02-29T05:45:27.065Z,5.51
2024-02-29T05:47:55.266Z,5.60
2024-02-29T05:50:23.316Z,5.70
2024-02-29T05:52:51.426Z,5.84
2024-02-29T05:55:19.756Z,5.99
2024-02-29T05:57:47.948Z,6.17
2024-02-29T06:00:18.697Z,6.36
2024-02-29T06:02:48.551Z,6.55
2024-02-29T06:05:19.982Z,6.76
2024-02-29T06:07:48.524Z,6.95
2024-02-29T06:10:20.763Z,7.14
2024-02-29T06:12:55.947Z,7.35
2024-02-29T06:15:24.192Z,7.57
2024-02-29T06:17:52.258Z,7.70
2024-02-29T06:20:20.385Z,7.75
2024-02-29T06:23:06.280Z,7.82
2024-02-29T06:25:35.796Z,7.83
2024-02-29T06:28:04.083Z,7.83
2024-02-29T06:30:33.892Z,7.83
2024-02-29T06:33:03.336Z,7.85
2024-02-29T06:35:32.477Z,7.88
2024-02-29T06:38:00.511Z,7.93
2024-02-29T06:40:29.248Z,8.02
2024-02-29T06:42:57.480Z,8.09
2024-02-29T06:45:25.766Z,8.18
2024-02-29T06:47:53.944Z,8.24
2024-02-29T06:50:22.098Z,8.29
2024-02-29T06:52:52.344Z,8.33
2024-02-29T06:55:21.912Z,8.36
2024-02-29T06:57:52.422Z,8.36
2024-02-29T07:00:20.647Z,8.36
2024-02-29T07:02:48.921Z,8.39
2024-02-29T07:05:17.988Z,8.46
2024-02-29T07:07:46.709Z,8.55
2024-02-29T07:10:15.063Z,8.60
2024-02-29T07:12:43.902Z,8.64
2024-02-29T07:15:13.809Z,8.68
2024-02-29T07:17:42.979Z,8.67
2024-02-29T07:20:17.908Z,8.71
2024-02-29T07:22:52.546Z,8.79
2024-02-29T07:25:20.701Z,8.88
2024-02-29T07:27:50.468Z,8.97
2024-02-29T07:30:19.851Z,9.06
2024-02-29T07:32:48.336Z,9.15
2024-02-29T07:35:19.194Z,9.24
2024-02-29T07:37:47.792Z,9.32
2024-02-29T07:40:16.242Z,9.41
2024-02-29T07:42:44.590Z,9.51
2024-02-29T07:45:12.768Z,9.60
2024-02-29T07:47:42.137Z,9.70
2024-02-29T07:50:11.133Z,9.83
2024-02-29T07:52:53.109Z,9.94
2024-02-29T07:55:21.381Z,10.03
2024-02-29T07:57:49.611Z,10.09
2024-02-29T08:00:19.145Z,10.12
2024-02-29T08:02:49.986Z,10.20
2024-02-29T08:05:18.329Z,10.27
2024-02-29T08:07:50.899Z,10.32
2024-02-29T08:10:19.287Z,10.29
2024-02-29T08:12:47.814Z,10.30
2024-02-29T08:15:16.393Z,10.34
2024-02-29T08:17:44.670Z,10.35
2024-02-29T08:20:12.885Z,10.34
2024-02-29T08:22:41.183Z,10.32
2024-02-29T08:25:26.225Z,10.32
2024-02-29T08:27:55.224Z,10.31
2024-02-29T08:30:24.467Z,10.35
2024-02-29T08:32:52.589Z,10.34
2024-02-29T08:35:20.773Z,10.31
2024-02-29T08:37:49.156Z,10.31
2024-02-29T08:40:20.985Z,10.32
2024-02-29T08:42:49.157Z,10.34
2024-02-29T08:45:19.802Z,10.35
2024-02-29T08:47:48.864Z,10.36
2024-02-29T08:50:17.178Z,10.36
2024-02-29T08:52:45.492Z,10.38
2024-02-29T08:55:13.733Z,10.42
2024-02-29T08:57:41.816Z,10.48
2024-02-29T09:00:10.920Z,10.54
2024-02-29T09:02:39.267Z,10.57
2024-02-29T09:05:07.845Z,10.59
2024-02-29T09:07:36.099Z,10.62
2024-02-29T09:10:06.207Z,10.64
2024-02-29T09:12:35.849Z,10.66
2024-02-29T09:15:04.450Z,10.67
2024-02-29T09:17:32.687Z,10.67
2024-02-29T09:20:01.029Z,10.67
2024-02-29T09:22:29.277Z,10.67
2024-02-29T09:24:57.561Z,10.68
2024-02-29T09:27:25.618Z,10.71
2024-02-29T09:29:55.461Z,10.76
2024-02-29T09:32:25.092Z,10.81
2024-02-29T09:34:53.565Z,10.87
2024-02-29T09:37:21.913Z,10.92
2024-02-29T09:39:50.486Z,10.98
2024-02-29T09:42:18.788Z,10.99
2024-02-29T09:44:48.554Z,10.97
2024-02-29T09:47:20.696Z,10.98
2024-02-29T09:49:51.410Z,11.02
2024-02-29T09:52:27.533Z,11.05
2024-02-29T09:54:58.582Z,11.11
2024-02-29T10:02:17.277Z,11.18
2024-02-29T10:04:47.820Z,11.20
2024-02-29T10:07:18.711Z,11.26
2024-02-29T10:09:47.245Z,11.30
2024-02-29T10:12:18.558Z,11.32
2024-02-29T10:15:00.273Z,11.33
2024-02-29T10:17:33.582Z,11.30
2024-02-29T10:20:02.037Z,11.31
2024-02-29T10:22:30.251Z,11.34
2024-02-29T10:24:58.412Z,11.32
2024-02-29T10:27:27.168Z,11.30
2024-02-29T10:30:02.976Z,11.32
2024-02-29T10:32:33.489Z,11.36
2024-02-29T10:35:22.157Z,11.42
2024-02-29T10:37:55.017Z,11.49
2024-02-29T10:40:27.718Z,11.53
2024-02-29T10:42:59.492Z,11.58
2024-02-29T10:45:29.417Z,11.61
2024-02-29T10:48:18.913Z,11.63
2024-02-29T10:51:01.602Z,11.68
2024-02-29T10:54:03.620Z,11.75
2024-02-29T10:56:34.872Z,11.79
2024-02-29T10:59:05.452Z,11.85
2024-02-29T11:01:34.749Z,11.91
2024-02-29T11:04:04.420Z,11.96
2024-02-29T11:06:47.761Z,12.01
2024-02-29T11:09:18.485Z,12.07
2024-02-29T11:11:48.629Z,12.13
2024-02-29T11:14:19.039Z,12.17
2024-02-29T11:16:47.459Z,12.22
2024-02-29T11:19:19.450Z,12.26
2024-02-29T11:21:48.036Z,12.30
2024-02-29T11:24:23.587Z,12.32
2024-02-29T11:26:57.663Z,12.36
2024-02-29T11:29:26.447Z,12.38
2024-02-29T11:31:56.459Z,12.41
2024-02-29T11:34:25.117Z,12.48
2024-02-29T11:36:55.004Z,12.54
2024-02-29T11:39:24.563Z,12.58
2024-02-29T11:42:08.031Z,12.60
2024-02-29T11:44:36.299Z,12.62
2024-02-29T11:47:04.679Z,12.66
2024-02-29T11:49:46.199Z,12.71
2024-02-29T11:52:53.784Z,12.77
2024-02-29T11:55:35.312Z,12.82
2024-02-29T11:58:03.718Z,12.87
2024-02-29T12:00:32.145Z,12.92
2024-02-29T12:03:00.743Z,12.97
2024-02-29T12:05:28.938Z,13.02
2024-02-29T12:07:58.293Z,13.06
2024-02-29T12:10:29.945Z,13.09
2024-02-29T12:13:08.211Z,13.12
2024-02-29T12:15:38.718Z,13.17
2024-02-29T12:18:10.704Z,13.17
2024-02-29T12:20:39.043Z,13.17
2024-02-29T12:23:08.591Z,13.16
2024-02-29T12:25:36.726Z,13.17
2024-02-29T12:28:06.837Z,13.19
2024-02-29T12:30:35.830Z,13.21
2024-02-29T12:33:04.413Z,13.21
2024-02-29T12:35:33.494Z,13.24
2024-02-29T12:38:04.728Z,13.26
2024-02-29T12:40:34.334Z,13.30
2024-02-29T12:43:02.829Z,13.33
2024-02-29T12:45:31.171Z,13.36
2024-02-29T12:48:00.492Z,13.38
2024-02-29T12:50:37.884Z,13.40
2024-02-29T12:53:06.048Z,13.41
2024-02-29T12:55:34.472Z,13.44
2024-02-29T12:58:04.995Z,13.46
2024-02-29T13:00:33.939Z,13.48
2024-02-29T13:03:08.998Z,13.50
2024-02-29T13:05:46.903Z,13.51
2024-02-29T13:08:49.330Z,13.53
2024-02-29T13:11:18.155Z,13.55
2024-02-29T13:13:48.523Z,13.56
2024-02-29T13:16:16.646Z,13.55
2024-02-29T13:18:44.928Z,13.53
2024-02-29T13:21:18.824Z,13.52
2024-02-29T13:23:47.079Z,13.52
2024-02-29T13:26:17.344Z,13.52
2024-02-29T13:28:46.841Z,13.52
2024-02-29T13:31:15.396Z,13.51
2024-02-29T13:33:43.576Z,13.52
2024-02-29T13:36:11.953Z,13.53
2024-02-29T13:38:40.448Z,13.53
2024-02-29T13:41:09.053Z,13.53
2024-02-29T13:43:37.892Z,13.53
2024-02-29T13:46:06.645Z,13.53
2024-02-29T13:48:37.098Z,13.53
2024-02-29T13:51:06.806Z,13.52
2024-02-29T13:53:38.455Z,13.51
2024-02-29T13:56:37.403Z,13.50
2024-02-29T13:59:08.678Z,13.49
2024-02-29T14:01:37.027Z,13.47
2024-02-29T14:04:05.528Z,13.43
2024-02-29T14:06:34.262Z,13.41
2024-02-29T14:09:02.819Z,13.38
2024-02-29T14:11:31.059Z,13.35
2024-02-29T14:13:59.221Z,13.32
2024-02-29T14:16:33.727Z,13.30
2024-02-29T14:19:02.609Z,13.28
2024-02-29T14:21:30.724Z,13.25
2024-02-29T14:23:59.255Z,13.21
2024-02-29T14:26:30.517Z,13.18
2024-02-29T14:29:00.740Z,13.15
2024-02-29T14:31:34.621Z,13.11
2024-02-29T14:34:04.151Z,13.08
2024-02-29T14:36:36.262Z,13.05
2024-02-29T14:39:15.324Z,13.02
2024-02-29T14:41:49.054Z,12.99
2024-02-29T14:44:17.416Z,12.95
2024-02-29T14:46:46.571Z,12.91
2024-02-29T14:49:18.024Z,12.87
2024-02-29T14:51:46.575Z,12.81
2024-02-29T14:54:15.891Z,12.77
2024-02-29T14:56:44.718Z,12.72
2024-02-29T15:00:07.327Z,12.68
2024-02-29T15:02:35.506Z,12.63
2024-02-29T15:05:07.999Z,12.59
2024-02-29T15:07:37.729Z,12.55
2024-02-29T15:10:07.734Z,12.53
2024-02-29T15:12:35.817Z,12.49
2024-02-29T15:15:05.378Z,12.45
2024-02-29T15:17:34.456Z,12.41
2024-02-29T15:20:06.024Z,12.37
2024-02-29T15:22:34.216Z,12.33
2024-02-29T15:25:05.293Z,12.28
2024-02-29T15:27:39.307Z,12.24
2024-02-29T15:30:08.434Z,12.20
2024-02-29T15:32:36.856Z,12.16
2024-02-29T15:35:08.892Z,12.12
2024-02-29T15:37:37.267Z,12.07
2024-02-29T15:40:06.148Z,12.04
2024-02-29T15:42:35.885Z,12.00
2024-02-29T15:46:01.765Z,11.96
2024-02-29T15:48:30.736Z,11.91
2024-02-29T15:50:59.203Z,11.87
2024-02-29T15:53:27.233Z,11.83
2024-02-29T15:55:55.465Z,11.78
2024-02-29T15:58:23.738Z,11.72
2024-02-29T16:00:51.891Z,11.67
2024-02-29T16:03:20.053Z,11.61
2024-02-29T16:05:50.588Z,11.54
2024-02-29T16:08:20.628Z,11.46
2024-02-29T16:10:53.069Z,11.39
2024-02-29T16:13:22.862Z,11.33
2024-02-29T16:15:54.508Z,11.26
2024-02-29T16:18:23.447Z,11.19
2024-02-29T16:20:54.550Z,11.11
2024-02-29T16:23:25.028Z,11.01
2024-02-29T16:25:53.116Z,10.94
2024-02-29T16:28:27.218Z,10.88
2024-02-29T16:31:01.036Z,10.83
2024-02-29T16:33:29.292Z,10.77
2024-02-29T16:36:01.605Z,10.71
2024-02-29T16:38:30.052Z,10.64
2024-02-29T16:41:03.685Z,10.58
2024-02-29T16:43:34.997Z,10.52
2024-02-29T16:46:09.951Z,10.46
2024-02-29T16:48:38.537Z,10.40
2024-02-29T16:51:08.907Z,10.33
2024-02-29T16:53:37.765Z,10.28
2024-02-29T16:56:05.992Z,10.22
2024-02-29T16:58:34.349Z,10.16
2024-02-29T17:01:02.639Z,10.10
2024-02-29T17:03:41.732Z,10.03
2024-02-29T17:06:13.183Z,9.97
2024-02-29T17:08:41.222Z,9.92
2024-02-29T17:11:12.705Z,9.85
2024-02-29T17:13:41.039Z,9.78
2024-02-29T17:16:09.194Z,9.72
2024-02-29T17:18:43.155Z,9.66
2024-02-29T17:21:15.865Z,9.60
2024-02-29T17:23:49.572Z,9.54
2024-02-29T17:26:25.629Z,9.47
2024-02-29T17:28:57.537Z,9.41
2024-02-29T17:31:31.474Z,9.35
2024-02-29T17:34:05.818Z,9.28
2024-02-29T17:36:34.468Z,9.20
2024-02-29T17:39:04.390Z,9.15
2024-02-29T17:41:32.963Z,9.09
2024-02-29T17:44:05.562Z,9.03
2024-02-29T17:46:33.597Z,9.00
2024-02-29T17:49:04.236Z,8.96
2024-02-29T17:51:32.318Z,8.92
2024-02-29T17:54:05.817Z,8.90
2024-02-29T17:56:40.341Z,8.89
2024-02-29T17:59:09.699Z,8.88
2024-02-29T18:01:42.008Z,8.87
2024-02-29T18:04:13.875Z,8.84
2024-02-29T18:06:50.674Z,8.82
2024-02-29T18:09:23.476Z,8.79
2024-02-29T18:11:53.809Z,8.75
2024-02-29T18:14:32.828Z,8.72
2024-02-29T18:17:01.042Z,8.70
2024-02-29T18:19:29.574Z,8.68
2024-02-29T18:22:08.396Z,8.65
2024-02-29T18:24:43.551Z,8.63
2024-02-29T18:27:15.515Z,8.62
2024-02-29T18:29:49.869Z,8.60
2024-02-29T18:32:24.490Z,8.59
2024-02-29T18:34:53.428Z,8.58
2024-02-29T18:37:33.089Z,8.57
2024-02-29T18:40:03.393Z,8.56
2024-02-29T18:42:31.752Z,8.56
2024-02-29T18:45:01.527Z,8.57
2024-02-29T18:47:29.862Z,8.57
2024-02-29T18:50:00.799Z,8.56
2024-02-29T18:52:32.885Z,8.55
2024-02-29T18:55:08.446Z,8.55
2024-02-29T18:57:47.068Z,8.55
2024-02-29T19:00:16.570Z,8.54
2024-02-29T19:02:45.132Z,8.54
2024-02-29T19:05:15.513Z,8.52
2024-02-29T19:07:48.350Z,8.51
2024-02-29T19:10:26.979Z,8.50
2024-02-29T19:12:57.009Z,8.49
2024-02-29T19:15:27.114Z,8.50
2024-02-29T19:17:55.209Z,8.50
2024-02-29T19:20:26.690Z,8.51
2024-02-29T19:22:57.553Z,8.52
2024-02-29T19:25:25.787Z,8.55
2024-02-29T19:27:59.039Z,8.58
2024-02-29T19:30:28.318Z,8.59
2024-02-29T19:32:56.377Z,8.57
2024-02-29T19:35:25.216Z,8.57
2024-02-29T19:37:54.390Z,8.58
2024-02-29T19:40:22.615Z,8.59
2024-02-29T19:42:51.042Z,8.59
2024-02-29T19:45:19.536Z,8.60
2024-02-29T19:47:51.165Z,8.63
2024-02-29T19:50:21.590Z,8.71
2024-02-29T19:52:49.645Z,8.81
2024-02-29T19:55:17.806Z,8.90
2024-02-29T19:57:46.088Z,8.99
2024-02-29T20:00:18.885Z,9.07
2024-02-29T20:02:49.380Z,9.15
2024-02-29T20:05:22.241Z,9.21
2024-02-29T20:07:52.308Z,9.29
2024-02-29T20:10:23.321Z,9.36
2024-02-29T20:12:54.085Z,9.41
2024-02-29T20:15:22.761Z,9.42
2024-02-29T20:17:54.408Z,9.42
2024-02-29T20:20:22.655Z,9.43
2024-02-29T20:22:51.152Z,9.43
2024-02-29T20:25:24.336Z,9.41
2024-02-29T20:27:55.359Z,9.38
2024-02-29T20:30:24.484Z,9.36
2024-02-29T20:32:52.704Z,9.34
2024-02-29T20:35:20.906Z,9.33
2024-02-29T20:37:51.411Z,9.33
2024-02-29T20:40:20.722Z,9.34
2024-02-29T20:42:54.328Z,9.35
2024-02-29T20:45:23.733Z,9.33
2024-02-29T20:47:52.091Z,9.32
2024-02-29T20:50:28.384Z,9.25
2024-02-29T20:52:56.581Z,9.13
2024-02-29T20:55:28.249Z,9.02
2024-02-29T20:57:56.299Z,8.94
2024-02-29T21:00:24.280Z,8.87
2024-02-29T21:02:55.445Z,8.81
2024-02-29T21:05:27.425Z,8.73
2024-02-29T21:08:01.446Z,8.67
2024-02-29T21:10:36.088Z,8.60
2024-02-29T21:13:07.122Z,8.53
2024-02-29T21:15:36.476Z,8.48
2024-02-29T21:18:07.919Z,8.43
2024-02-29T21:20:43.784Z,8.39
2024-02-29T21:23:12.107Z,8.36
2024-02-29T21:25:43.248Z,8.34
2024-02-29T21:28:13.011Z,8.31
2024-02-29T21:30:46.760Z,8.28
2024-02-29T21:33:38.008Z,8.23
2024-02-29T21:36:07.503Z,8.17
2024-02-29T21:38:38.971Z,8.12
2024-02-29T21:41:08.016Z,8.06
2024-02-29T21:43:36.315Z,8.00
2024-02-29T21:46:04.644Z,7.95
2024-02-29T21:48:32.807Z,7.90
2024-02-29T21:51:00.796Z,7.85
2024-02-29T21:53:29.291Z,7.79
2024-02-29T21:55:57.306Z,7.74
2024-02-29T21:58:29.852Z,7.70
2024-02-29T22:01:00.769Z,7.66
2024-02-29T22:03:32.837Z,7.63
2024-02-29T22:06:08.645Z,7.59
2024-02-29T22:08:40.638Z,7.59
2024-02-29T22:11:14.800Z,7.62
2024-02-29T22:13:43.217Z,7.65
2024-02-29T22:16:16.747Z,7.64
2024-02-29T22:18:47.692Z,7.61
2024-02-29T22:21:25.550Z,7.59
2024-02-29T22:23:55.992Z,7.57
2024-02-29T22:26:27.029Z,7.55
2024-02-29T22:28:55.003Z,7.52
2024-02-29T22:31:28.440Z,7.49
2024-02-29T22:33:58.270Z,7.46
2024-02-29T22:36:28.030Z,7.42
2024-02-29T22:38:56.556Z,7.40
2024-02-29T22:41:24.668Z,7.38
2024-02-29T22:43:59.611Z,7.38
2024-02-29T22:46:30.077Z,7.38
2024-02-29T22:49:00.075Z,7.39
2024-02-29T22:51:28.260Z,7.40
2024-02-29T22:53:56.392Z,7.41
2024-02-29T22:56:31.343Z,7.41
2024-02-29T22:59:06.058Z,7.42
2024-02-29T23:01:40.355Z,7.41
2024-02-29T23:04:09.513Z,7.43
2024-02-29T23:06:39.029Z,7.46
2024-02-29T23:09:11.339Z,7.50
2024-02-29T23:11:40.020Z,7.52
2024-02-29T23:14:13.140Z,7.55
2024-02-29T23:16:44.937Z,7.58
2024-02-29T23:19:15.773Z,7.59
2024-02-29T23:21:44.026Z,7.59
2024-02-29T23:24:12.173Z,7.60
2024-02-29T23:26:40.313Z,7.61
2024-02-29T23:29:08.527Z,7.59
2024-02-29T23:31:36.608Z,7.59
2024-02-29T23:34:05.004Z,7.59
2024-02-29T23:36:33.141Z,7.60
2024-02-29T23:39:01.320Z,7.62
2024-02-29T23:41:29.439Z,7.55
2024-02-29T23:43:57.642Z,7.46
2024-02-29T23:46:25.919Z,7.38
2024-02-29T23:48:54.232Z,7.32
2024-02-29T23:51:22.487Z,7.27
2024-02-29T23:53:50.987Z,7.21
2024-02-29T23:56:19.227Z,7.16
2024-02-29T23:58:47.402Z,7.10
